EGOV - Valley
Distance from station: E 5mi, 14km
Updated: 07/22/2018 4:50pm
Mostly Cloudy
Mostly Cloudy
 Wind from S
Wind: S 10 mph , 17 km/h
Temperature: 64°F , 18°C
Dew Point: 63°F , 17°C
Humidity: 94%
Barometer: 30 inHg , 1016 hPa
Clouds: Mostly Cloudy
Visibility: 6 miles , 10 km
Cloud details: Few Clouds 3800 ft
Mostly Cloudy 5000 ft
2018/07/22 23:50 EGOV 222350Z AUTO 18009KT 9999 FEW038/// BKN050/// 18/17 Q1016